sensor_id;sensor_type;location;lat;lon;timestamp;pressure;altitude;pressure_sealevel;temperature;humidity
21902;BME280;11115;46.038;14.612;2022-12-18T00:02:16;99805.78;;;0.85;100.00
21902;BME280;11115;46.038;14.612;2022-12-18T00:04:53;99804.53;;;0.75;100.00
21902;BME280;11115;46.038;14.612;2022-12-18T00:07:22;99820.63;;;0.89;100.00
21902;BME280;11115;46.038;14.612;2022-12-18T00:09:53;99811.59;;;0.96;100.00
21902;BME280;11115;46.038;14.612;2022-12-18T00:12:27;99817.69;;;0.91;100.00
21902;BME280;11115;46.038;14.612;2022-12-18T00:15:08;99831.50;;;0.96;100.00
21902;BME280;11115;46.038;14.612;2022-12-18T00:17:42;99826.09;;;0.89;100.00
21902;BME280;11115;46.038;14.612;2022-12-18T00:20:10;99832.84;;;0.80;100.00
21902;BME280;11115;46.038;14.612;2022-12-18T00:23:06;99836.59;;;0.86;100.00
21902;BME280;11115;46.038;14.612;2022-12-18T00:25:40;99831.38;;;0.71;100.00
21902;BME280;11115;46.038;14.612;2022-12-18T00:28:14;99836.38;;;0.87;100.00
21902;BME280;11115;46.038;14.612;2022-12-18T00:30:48;99831.31;;;0.91;100.00
21902;BME280;11115;46.038;14.612;2022-12-18T00:33:21;99843.03;;;1.05;100.00
21902;BME280;11115;46.038;14.612;2022-12-18T00:36:09;99821.47;;;0.90;100.00
21902;BME280;11115;46.038;14.612;2022-12-18T00:38:44;99849.31;;;1.05;100.00
21902;BME280;11115;46.038;14.612;2022-12-18T00:41:18;99850.19;;;0.93;100.00
21902;BME280;11115;46.038;14.612;2022-12-18T00:44:07;99828.03;;;0.56;100.00
21902;BME280;11115;46.038;14.612;2022-12-18T00:46:35;99857.56;;;0.66;100.00
21902;BME280;11115;46.038;14.612;2022-12-18T00:49:20;99860.50;;;0.77;100.00
21902;BME280;11115;46.038;14.612;2022-12-18T00:52:01;99867.81;;;0.83;100.00
21902;BME280;11115;46.038;14.612;2022-12-18T00:54:37;99863.66;;;0.68;100.00
21902;BME280;11115;46.038;14.612;2022-12-18T00:57:07;99865.53;;;0.54;100.00
21902;BME280;11115;46.038;14.612;2022-12-18T00:59:38;99851.69;;;0.55;100.00
21902;BME280;11115;46.038;14.612;2022-12-18T01:02:12;99868.47;;;0.66;100.00
21902;BME280;11115;46.038;14.612;2022-12-18T01:04:44;99872.44;;;0.50;100.00
21902;BME280;11115;46.038;14.612;2022-12-18T01:07:20;99866.38;;;0.28;100.00
21902;BME280;11115;46.038;14.612;2022-12-18T01:09:58;99863.63;;;0.15;100.00
21902;BME280;11115;46.038;14.612;2022-12-18T01:12:29;99870.72;;;-0.04;100.00
21902;BME280;11115;46.038;14.612;2022-12-18T01:15:04;99869.06;;;-0.05;100.00
21902;BME280;11115;46.038;14.612;2022-12-18T01:17:37;99833.69;;;-0.12;100.00
21902;BME280;11115;46.038;14.612;2022-12-18T01:20:09;99860.94;;;0.28;100.00
21902;BME280;11115;46.038;14.612;2022-12-18T01:22:38;99872.44;;;0.10;100.00
21902;BME280;11115;46.038;14.612;2022-12-18T01:25:10;99868.88;;;0.10;100.00
21902;BME280;11115;46.038;14.612;2022-12-18T01:27:42;99874.09;;;0.18;100.00
21902;BME280;11115;46.038;14.612;2022-12-18T01:30:11;99884.59;;;0.27;100.00
21902;BME280;11115;46.038;14.612;2022-12-18T01:32:47;99883.53;;;0.35;100.00
21902;BME280;11115;46.038;14.612;2022-12-18T01:35:19;99890.69;;;0.43;100.00
21902;BME280;11115;46.038;14.612;2022-12-18T01:37:49;99881.06;;;0.40;100.00
21902;BME280;11115;46.038;14.612;2022-12-18T01:40:20;99887.31;;;0.34;100.00
21902;BME280;11115;46.038;14.612;2022-12-18T01:42:52;99863.84;;;0.07;100.00
21902;BME280;11115;46.038;14.612;2022-12-18T01:45:26;99877.47;;;0.26;100.00
21902;BME280;11115;46.038;14.612;2022-12-18T01:48:06;99877.25;;;0.35;100.00
21902;BME280;11115;46.038;14.612;2022-12-18T01:50:42;99879.16;;;0.27;100.00
21902;BME280;11115;46.038;14.612;2022-12-18T01:53:21;99877.47;;;0.33;100.00
21902;BME280;11115;46.038;14.612;2022-12-18T01:55:55;99885.22;;;0.29;100.00
21902;BME280;11115;46.038;14.612;2022-12-18T02:01:25;99892.75;;;0.34;100.00
21902;BME280;11115;46.038;14.612;2022-12-18T02:04:23;99904.50;;;0.21;100.00
21902;BME280;11115;46.038;14.612;2022-12-18T02:10:20;99908.44;;;0.19;100.00
21902;BME280;11115;46.038;14.612;2022-12-18T02:15:58;99916.56;;;-0.08;100.00
21902;BME280;11115;46.038;14.612;2022-12-18T02:18:37;99919.13;;;0.07;100.00
21902;BME280;11115;46.038;14.612;2022-12-18T02:27:07;99931.84;;;-0.07;100.00
21902;BME280;11115;46.038;14.612;2022-12-18T02:29:44;99926.22;;;0.08;100.00
21902;BME280;11115;46.038;14.612;2022-12-18T02:32:43;99931.91;;;0.20;100.00
21902;BME280;11115;46.038;14.612;2022-12-18T02:35:24;99938.00;;;0.22;100.00
21902;BME280;11115;46.038;14.612;2022-12-18T02:38:00;99936.06;;;0.09;100.00
21902;BME280;11115;46.038;14.612;2022-12-18T02:40:36;99940.84;;;-0.13;100.00
21902;BME280;11115;46.038;14.612;2022-12-18T02:43:17;99937.13;;;0.02;100.00
21902;BME280;11115;46.038;14.612;2022-12-18T02:45:56;99937.53;;;0.18;100.00
21902;BME280;11115;46.038;14.612;2022-12-18T02:48:34;99941.72;;;0.14;100.00
21902;BME280;11115;46.038;14.612;2022-12-18T02:51:08;99937.97;;;0.09;100.00
21902;BME280;11115;46.038;14.612;2022-12-18T02:54:08;99932.47;;;-0.11;100.00
21902;BME280;11115;46.038;14.612;2022-12-18T02:56:52;99944.41;;;-0.06;100.00
21902;BME280;11115;46.038;14.612;2022-12-18T02:59:46;99940.63;;;-0.05;100.00
21902;BME280;11115;46.038;14.612;2022-12-18T03:02:36;99942.97;;;0.05;100.00
21902;BME280;11115;46.038;14.612;2022-12-18T03:05:41;99946.94;;;0.03;100.00
21902;BME280;11115;46.038;14.612;2022-12-18T03:08:20;99946.91;;;-0.11;100.00
21902;BME280;11115;46.038;14.612;2022-12-18T03:11:03;99953.75;;;-0.21;100.00
21902;BME280;11115;46.038;14.612;2022-12-18T03:13:54;99947.44;;;-0.35;100.00
21902;BME280;11115;46.038;14.612;2022-12-18T03:16:52;99963.38;;;-0.25;100.00
21902;BME280;11115;46.038;14.612;2022-12-18T03:19:29;99959.19;;;-0.28;100.00
21902;BME280;11115;46.038;14.612;2022-12-18T03:22:06;99963.28;;;-0.45;100.00
21902;BME280;11115;46.038;14.612;2022-12-18T03:24:45;99963.25;;;-0.52;100.00
21902;BME280;11115;46.038;14.612;2022-12-18T03:27:29;99962.25;;;-0.44;100.00
21902;BME280;11115;46.038;14.612;2022-12-18T03:30:12;99956.50;;;-0.63;100.00
21902;BME280;11115;46.038;14.612;2022-12-18T03:32:52;99956.28;;;-0.68;100.00
21902;BME280;11115;46.038;14.612;2022-12-18T03:35:30;99953.13;;;-0.71;100.00
21902;BME280;11115;46.038;14.612;2022-12-18T03:38:01;99961.28;;;-0.71;100.00
21902;BME280;11115;46.038;14.612;2022-12-18T03:40:43;99953.22;;;-0.51;100.00
21902;BME280;11115;46.038;14.612;2022-12-18T03:49:13;99968.72;;;-0.45;100.00
21902;BME280;11115;46.038;14.612;2022-12-18T03:52:09;99962.13;;;-0.64;100.00
21902;BME280;11115;46.038;14.612;2022-12-18T03:54:42;99968.59;;;-0.72;100.00
21902;BME280;11115;46.038;14.612;2022-12-18T03:57:19;99964.00;;;-0.65;100.00
21902;BME280;11115;46.038;14.612;2022-12-18T03:59:56;99978.53;;;-0.85;100.00
21902;BME280;11115;46.038;14.612;2022-12-18T04:02:54;99986.63;;;-0.92;100.00
21902;BME280;11115;46.038;14.612;2022-12-18T04:05:34;99996.22;;;-0.96;100.00
21902;BME280;11115;46.038;14.612;2022-12-18T04:08:15;100001.13;;;-0.78;100.00
21902;BME280;11115;46.038;14.612;2022-12-18T04:10:56;100010.25;;;-0.58;100.00
21902;BME280;11115;46.038;14.612;2022-12-18T04:13:36;100020.59;;;-0.47;100.00
21902;BME280;11115;46.038;14.612;2022-12-18T04:16:19;100015.97;;;-0.46;100.00
21902;BME280;11115;46.038;14.612;2022-12-18T04:19:05;100005.84;;;-0.59;100.00
21902;BME280;11115;46.038;14.612;2022-12-18T04:21:45;100011.25;;;-0.66;100.00
21902;BME280;11115;46.038;14.612;2022-12-18T04:24:20;100009.25;;;-0.57;100.00
21902;BME280;11115;46.038;14.612;2022-12-18T04:27:04;100016.59;;;-0.51;100.00
21902;BME280;11115;46.038;14.612;2022-12-18T04:29:49;100014.22;;;-0.61;100.00
21902;BME280;11115;46.038;14.612;2022-12-18T04:32:18;100010.97;;;-0.43;100.00
21902;BME280;11115;46.038;14.612;2022-12-18T04:34:54;100019.75;;;-0.47;100.00
21902;BME280;11115;46.038;14.612;2022-12-18T04:37:25;100018.25;;;-0.56;100.00
21902;BME280;11115;46.038;14.612;2022-12-18T04:40:07;100030.72;;;-0.62;100.00
21902;BME280;11115;46.038;14.612;2022-12-18T04:42:43;100033.88;;;-0.58;100.00
21902;BME280;11115;46.038;14.612;2022-12-18T04:45:15;100029.88;;;-0.63;100.00
21902;BME280;11115;46.038;14.612;2022-12-18T04:47:48;100032.28;;;-0.53;100.00
21902;BME280;11115;46.038;14.612;2022-12-18T04:50:17;100039.28;;;-0.37;100.00
21902;BME280;11115;46.038;14.612;2022-12-18T04:52:50;100043.59;;;-0.43;100.00
21902;BME280;11115;46.038;14.612;2022-12-18T04:55:19;100045.09;;;-0.40;100.00
21902;BME280;11115;46.038;14.612;2022-12-18T04:57:53;100053.50;;;-0.35;100.00
21902;BME280;11115;46.038;14.612;2022-12-18T05:00:30;100049.25;;;-0.44;100.00
21902;BME280;11115;46.038;14.612;2022-12-18T05:03:01;100052.91;;;-0.31;100.00
21902;BME280;11115;46.038;14.612;2022-12-18T05:05:39;100073.63;;;-0.23;100.00
21902;BME280;11115;46.038;14.612;2022-12-18T05:08:08;100076.56;;;-0.24;100.00
21902;BME280;11115;46.038;14.612;2022-12-18T05:10:44;100080.22;;;-0.11;100.00
21902;BME280;11115;46.038;14.612;2022-12-18T05:13:18;100077.94;;;-0.01;100.00
21902;BME280;11115;46.038;14.612;2022-12-18T05:15:54;100080.03;;;-0.03;100.00
21902;BME280;11115;46.038;14.612;2022-12-18T05:18:22;100085.31;;;0.06;100.00
21902;BME280;11115;46.038;14.612;2022-12-18T05:21:01;100089.44;;;-0.05;100.00
21902;BME280;11115;46.038;14.612;2022-12-18T05:23:33;100100.13;;;-0.04;100.00
21902;BME280;11115;46.038;14.612;2022-12-18T05:26:17;100082.75;;;-0.03;100.00
21902;BME280;11115;46.038;14.612;2022-12-18T05:28:49;100084.63;;;-0.03;100.00
21902;BME280;11115;46.038;14.612;2022-12-18T05:31:24;100080.03;;;-0.03;100.00
21902;BME280;11115;46.038;14.612;2022-12-18T05:34:06;100087.41;;;0.04;100.00
21902;BME280;11115;46.038;14.612;2022-12-18T05:36:36;100090.56;;;0.07;100.00
21902;BME280;11115;46.038;14.612;2022-12-18T05:39:08;100070.81;;;-0.02;100.00
21902;BME280;11115;46.038;14.612;2022-12-18T05:41:38;100101.25;;;0.09;100.00
21902;BME280;11115;46.038;14.612;2022-12-18T05:44:10;100099.59;;;0.14;100.00
21902;BME280;11115;46.038;14.612;2022-12-18T05:46:44;100094.47;;;-0.02;100.00
21902;BME280;11115;46.038;14.612;2022-12-18T05:49:15;100091.19;;;0.09;100.00
21902;BME280;11115;46.038;14.612;2022-12-18T05:51:48;100082.47;;;0.20;100.00
21902;BME280;11115;46.038;14.612;2022-12-18T05:54:19;100092.31;;;0.28;100.00
21902;BME280;11115;46.038;14.612;2022-12-18T05:56:54;100090.03;;;0.32;100.00
21902;BME280;11115;46.038;14.612;2022-12-18T05:59:25;100095.78;;;0.09;100.00
21902;BME280;11115;46.038;14.612;2022-12-18T06:01:56;100104.13;;;0.01;100.00
21902;BME280;11115;46.038;14.612;2022-12-18T06:04:36;100109.44;;;0.15;100.00
21902;BME280;11115;46.038;14.612;2022-12-18T06:07:10;100117.03;;;0.26;100.00
21902;BME280;11115;46.038;14.612;2022-12-18T06:09:41;100115.75;;;0.22;100.00
21902;BME280;11115;46.038;14.612;2022-12-18T06:12:15;100112.84;;;0.30;100.00
21902;BME280;11115;46.038;14.612;2022-12-18T06:14:46;100116.53;;;0.16;100.00
21902;BME280;11115;46.038;14.612;2022-12-18T06:17:32;100116.53;;;0.16;100.00
21902;BME280;11115;46.038;14.612;2022-12-18T06:20:10;100115.47;;;0.11;100.00
21902;BME280;11115;46.038;14.612;2022-12-18T06:22:41;100125.31;;;0.05;100.00
21902;BME280;11115;46.038;14.612;2022-12-18T06:25:11;100107.88;;;-0.01;100.00
21902;BME280;11115;46.038;14.612;2022-12-18T06:27:48;100119.88;;;0.12;100.00
21902;BME280;11115;46.038;14.612;2022-12-18T06:30:23;100124.72;;;0.16;100.00
21902;BME280;11115;46.038;14.612;2022-12-18T06:33:06;100124.91;;;0.15;100.00
21902;BME280;11115;46.038;14.612;2022-12-18T06:35:38;100124.03;;;0.01;100.00
21902;BME280;11115;46.038;14.612;2022-12-18T06:38:10;100126.16;;;0.12;100.00
21902;BME280;11115;46.038;14.612;2022-12-18T06:40:49;100124.69;;;0.10;100.00
21902;BME280;11115;46.038;14.612;2022-12-18T06:43:22;100130.75;;;0.05;100.00
21902;BME280;11115;46.038;14.612;2022-12-18T06:46:00;100135.91;;;-0.07;100.00
21902;BME280;11115;46.038;14.612;2022-12-18T06:48:29;100141.66;;;-0.23;100.00
21902;BME280;11115;46.038;14.612;2022-12-18T06:51:00;100145.19;;;-0.22;100.00
21902;BME280;11115;46.038;14.612;2022-12-18T06:53:28;100150.50;;;-0.14;100.00
21902;BME280;11115;46.038;14.612;2022-12-18T06:56:06;100162.38;;;0.13;100.00
21902;BME280;11115;46.038;14.612;2022-12-18T06:58:38;100148.94;;;0.05;100.00
21902;BME280;11115;46.038;14.612;2022-12-18T07:01:13;100158.19;;;0.10;100.00
21902;BME280;11115;46.038;14.612;2022-12-18T07:03:55;100166.31;;;0.04;100.00
21902;BME280;11115;46.038;14.612;2022-12-18T07:06:29;100177.25;;;0.10;100.00
21902;BME280;11115;46.038;14.612;2022-12-18T07:08:58;100178.88;;;0.05;100.00
21902;BME280;11115;46.038;14.612;2022-12-18T07:11:29;100176.19;;;0.11;100.00
21902;BME280;11115;46.038;14.612;2022-12-18T07:14:11;100181.16;;;0.01;100.00
21902;BME280;11115;46.038;14.612;2022-12-18T07:16:42;100186.66;;;0.08;100.00
21902;BME280;11115;46.038;14.612;2022-12-18T07:19:16;100184.78;;;0.15;100.00
21902;BME280;11115;46.038;14.612;2022-12-18T07:21:56;100185.84;;;0.14;100.00
21902;BME280;11115;46.038;14.612;2022-12-18T07:24:39;100181.00;;;0.09;100.00
21902;BME280;11115;46.038;14.612;2022-12-18T07:27:15;100183.88;;;0.01;100.00
21902;BME280;11115;46.038;14.612;2022-12-18T07:29:49;100190.38;;;0.00;100.00
21902;BME280;11115;46.038;14.612;2022-12-18T07:32:23;100204.41;;;0.04;100.00
21902;BME280;11115;46.038;14.612;2022-12-18T07:34:56;100216.34;;;0.03;100.00
21902;BME280;11115;46.038;14.612;2022-12-18T07:37:27;100211.97;;;0.08;100.00
21902;BME280;11115;46.038;14.612;2022-12-18T07:40:03;100228.09;;;0.10;100.00
21902;BME280;11115;46.038;14.612;2022-12-18T07:42:32;100223.72;;;0.09;100.00
21902;BME280;11115;46.038;14.612;2022-12-18T07:45:03;100213.31;;;-0.09;100.00
21902;BME280;11115;46.038;14.612;2022-12-18T07:47:35;100239.00;;;0.10;100.00
21902;BME280;11115;46.038;14.612;2022-12-18T07:50:06;100229.16;;;0.09;100.00
21902;BME280;11115;46.038;14.612;2022-12-18T07:52:37;100226.47;;;0.15;100.00
21902;BME280;11115;46.038;14.612;2022-12-18T07:55:06;100238.56;;;0.06;100.00
21902;BME280;11115;46.038;14.612;2022-12-18T07:57:35;100249.28;;;0.14;100.00
21902;BME280;11115;46.038;14.612;2022-12-18T08:00:27;100258.84;;;0.04;100.00
21902;BME280;11115;46.038;14.612;2022-12-18T08:03:00;100251.31;;;0.06;100.00
21902;BME280;11115;46.038;14.612;2022-12-18T08:06:09;100255.75;;;0.13;100.00
21902;BME280;11115;46.038;14.612;2022-12-18T08:08:44;100269.16;;;0.15;100.00
21902;BME280;11115;46.038;14.612;2022-12-18T08:11:14;100258.19;;;0.29;100.00
21902;BME280;11115;46.038;14.612;2022-12-18T08:13:47;100268.19;;;0.22;100.00
21902;BME280;11115;46.038;14.612;2022-12-18T08:16:25;100277.44;;;0.28;100.00
21902;BME280;11115;46.038;14.612;2022-12-18T08:18:54;100278.19;;;0.15;100.00
21902;BME280;11115;46.038;14.612;2022-12-18T08:21:39;100279.34;;;0.34;100.00
21902;BME280;11115;46.038;14.612;2022-12-18T08:24:19;100269.38;;;0.41;100.00
21902;BME280;11115;46.038;14.612;2022-12-18T08:26:57;100266.00;;;0.39;100.00
21902;BME280;11115;46.038;14.612;2022-12-18T08:29:49;100275.03;;;0.40;100.00
21902;BME280;11115;46.038;14.612;2022-12-18T08:32:22;100278.91;;;0.30;100.00
21902;BME280;11115;46.038;14.612;2022-12-18T08:34:59;100280.06;;;0.43;100.00
21902;BME280;11115;46.038;14.612;2022-12-18T08:37:27;100278.41;;;0.48;100.00
21902;BME280;11115;46.038;14.612;2022-12-18T08:39:59;100283.13;;;0.33;100.00
21902;BME280;11115;46.038;14.612;2022-12-18T08:42:41;100281.59;;;0.24;100.00
21902;BME280;11115;46.038;14.612;2022-12-18T08:45:28;100278.47;;;0.27;100.00
21902;BME280;11115;46.038;14.612;2022-12-18T08:48:05;100285.66;;;0.35;100.00
21902;BME280;11115;46.038;14.612;2022-12-18T08:50:34;100278.88;;;0.24;100.00
21902;BME280;11115;46.038;14.612;2022-12-18T08:53:03;100277.25;;;0.02;100.00
21902;BME280;11115;46.038;14.612;2022-12-18T08:55:32;100279.28;;;0.21;100.00
21902;BME280;11115;46.038;14.612;2022-12-18T08:58:03;100284.16;;;0.32;100.00
21902;BME280;11115;46.038;14.612;2022-12-18T09:00:34;100302.09;;;0.48;100.00
21902;BME280;11115;46.038;14.612;2022-12-18T09:03:14;100300.94;;;0.36;100.00
21902;BME280;11115;46.038;14.612;2022-12-18T09:05:58;100303.59;;;0.22;100.00
21902;BME280;11115;46.038;14.612;2022-12-18T09:08:32;100301.91;;;0.21;100.00
21902;BME280;11115;46.038;14.612;2022-12-18T09:11:11;100303.31;;;0.17;100.00
21902;BME280;11115;46.038;14.612;2022-12-18T09:13:42;100306.16;;;0.30;100.00
21902;BME280;11115;46.038;14.612;2022-12-18T09:16:13;100309.41;;;0.47;100.00
21902;BME280;11115;46.038;14.612;2022-12-18T09:18:42;100302.69;;;0.78;100.00
21902;BME280;11115;46.038;14.612;2022-12-18T09:21:20;100299.22;;;0.97;100.00
21902;BME280;11115;46.038;14.612;2022-12-18T09:23:51;100309.41;;;1.23;100.00
21902;BME280;11115;46.038;14.612;2022-12-18T09:26:22;100305.69;;;1.37;100.00
21902;BME280;11115;46.038;14.612;2022-12-18T09:28:54;100304.84;;;1.50;100.00
21902;BME280;11115;46.038;14.612;2022-12-18T09:31:38;100295.03;;;1.56;100.00
21902;BME280;11115;46.038;14.612;2022-12-18T09:34:08;100297.56;;;1.57;100.00
21902;BME280;11115;46.038;14.612;2022-12-18T09:36:38;100297.34;;;1.72;100.00
21902;BME280;11115;46.038;14.612;2022-12-18T09:39:09;100291.28;;;1.76;100.00
21902;BME280;11115;46.038;14.612;2022-12-18T09:41:54;100287.94;;;1.81;100.00
21902;BME280;11115;46.038;14.612;2022-12-18T09:44:43;100280.56;;;1.88;100.00
21902;BME280;11115;46.038;14.612;2022-12-18T09:47:28;100269.88;;;1.87;100.00
21902;BME280;11115;46.038;14.612;2022-12-18T09:50:03;100277.84;;;1.88;100.00
21902;BME280;11115;46.038;14.612;2022-12-18T09:52:48;100282.88;;;1.85;100.00
21902;BME280;11115;46.038;14.612;2022-12-18T09:55:44;100281.66;;;1.94;100.00
21902;BME280;11115;46.038;14.612;2022-12-18T09:58:31;100281.41;;;1.89;100.00
21902;BME280;11115;46.038;14.612;2022-12-18T10:01:20;100274.28;;;1.88;100.00
21902;BME280;11115;46.038;14.612;2022-12-18T10:03:59;100268.63;;;1.82;100.00
21902;BME280;11115;46.038;14.612;2022-12-18T10:07:00;100274.06;;;1.89;100.00
21902;BME280;11115;46.038;14.612;2022-12-18T10:10:07;100275.75;;;1.90;100.00
21902;BME280;11115;46.038;14.612;2022-12-18T10:13:12;100263.56;;;1.93;100.00
21902;BME280;11115;46.038;14.612;2022-12-18T10:22:03;100259.81;;;1.94;100.00
21902;BME280;11115;46.038;14.612;2022-12-18T10:27:57;100255.59;;;2.18;100.00
21902;BME280;11115;46.038;14.612;2022-12-18T10:30:32;100251.81;;;2.12;100.00
21902;BME280;11115;46.038;14.612;2022-12-18T10:33:02;100253.50;;;2.06;100.00
21902;BME280;11115;46.038;14.612;2022-12-18T10:35:44;100253.91;;;2.03;100.00
21902;BME280;11115;46.038;14.612;2022-12-18T10:38:30;100227.47;;;1.91;100.00
21902;BME280;11115;46.038;14.612;2022-12-18T10:41:27;100240.69;;;2.00;100.00
21902;BME280;11115;46.038;14.612;2022-12-18T10:44:22;100236.50;;;2.04;100.00
21902;BME280;11115;46.038;14.612;2022-12-18T10:47:06;100236.28;;;2.19;100.00
21902;BME280;11115;46.038;14.612;2022-12-18T10:49:50;100239.00;;;2.19;100.00
21902;BME280;11115;46.038;14.612;2022-12-18T10:52:25;100220.09;;;2.24;100.00
21902;BME280;11115;46.038;14.612;2022-12-18T10:55:16;100238.81;;;2.14;100.00
21902;BME280;11115;46.038;14.612;2022-12-18T10:57:50;100239.63;;;2.21;100.00
21902;BME280;11115;46.038;14.612;2022-12-18T11:00:29;100244.47;;;2.19;100.00
21902;BME280;11115;46.038;14.612;2022-12-18T11:03:00;100233.13;;;2.16;100.00
21902;BME280;11115;46.038;14.612;2022-12-18T11:05:31;100234.59;;;2.18;100.00
21902;BME280;11115;46.038;14.612;2022-12-18T11:08:02;100237.31;;;2.18;100.00
21902;BME280;11115;46.038;14.612;2022-12-18T11:11:24;100243.00;;;2.17;100.00
21902;BME280;11115;46.038;14.612;2022-12-18T11:14:17;100235.41;;;2.25;100.00
21902;BME280;11115;46.038;14.612;2022-12-18T11:16:58;100237.75;;;2.02;100.00
21902;BME280;11115;46.038;14.612;2022-12-18T11:19:57;100236.09;;;1.94;100.00
21902;BME280;11115;46.038;14.612;2022-12-18T11:22:33;100224.31;;;2.00;100.00
21902;BME280;11115;46.038;14.612;2022-12-18T11:31:28;100223.91;;;1.97;100.00
21902;BME280;11115;46.038;14.612;2022-12-18T11:34:28;100232.09;;;2.03;100.00
21902;BME280;11115;46.038;14.612;2022-12-18T11:36:58;100227.69;;;1.96;100.00
21902;BME280;11115;46.038;14.612;2022-12-18T11:40:14;100229.34;;;2.03;100.00
21902;BME280;11115;46.038;14.612;2022-12-18T11:42:52;100224.53;;;1.99;100.00
21902;BME280;11115;46.038;14.612;2022-12-18T11:45:33;100206.91;;;1.81;100.00
21902;BME280;11115;46.038;14.612;2022-12-18T11:48:30;100216.16;;;1.94;100.00
21902;BME280;11115;46.038;14.612;2022-12-18T11:51:14;100204.38;;;1.93;100.00
21902;BME280;11115;46.038;14.612;2022-12-18T11:53:45;100204.38;;;1.87;100.00
21902;BME280;11115;46.038;14.612;2022-12-18T11:56:33;100203.97;;;1.96;100.00
21902;BME280;11115;46.038;14.612;2022-12-18T12:08:49;100213.81;;;1.91;100.00
21902;BME280;11115;46.038;14.612;2022-12-18T12:32:36;100208.59;;;1.76;100.00
21902;BME280;11115;46.038;14.612;2022-12-18T12:35:32;100137.41;;;1.31;100.00
21902;BME280;11115;46.038;14.612;2022-12-18T12:38:37;100205.00;;;1.75;100.00
21902;BME280;11115;46.038;14.612;2022-12-18T12:41:27;100205.66;;;1.77;100.00
21902;BME280;11115;46.038;14.612;2022-12-18T12:44:20;100210.47;;;1.75;100.00
21902;BME280;11115;46.038;14.612;2022-12-18T12:47:00;100224.72;;;1.71;100.00
21902;BME280;11115;46.038;14.612;2022-12-18T12:49:44;100222.22;;;1.69;100.00
21902;BME280;11115;46.038;14.612;2022-12-18T12:52:37;100217.16;;;1.66;100.00
21902;BME280;11115;46.038;14.612;2022-12-18T12:55:18;100209.63;;;1.75;100.00
21902;BME280;11115;46.038;14.612;2022-12-18T12:58:07;100208.16;;;1.66;100.00
21902;BME280;11115;46.038;14.612;2022-12-18T13:01:00;100182.31;;;1.48;100.00
21902;BME280;11115;46.038;14.612;2022-12-18T13:04:01;100201.22;;;1.63;100.00
21902;BME280;11115;46.038;14.612;2022-12-18T13:06:50;100203.53;;;1.66;100.00
21902;BME280;11115;46.038;14.612;2022-12-18T13:09:22;100193.03;;;1.70;100.00
21902;BME280;11115;46.038;14.612;2022-12-18T13:12:11;100200.16;;;1.71;100.00
21902;BME280;11115;46.038;14.612;2022-12-18T13:15:22;100205.63;;;1.58;100.00
21902;BME280;11115;46.038;14.612;2022-12-18T13:18:18;100208.97;;;1.73;100.00
21902;BME280;11115;46.038;14.612;2022-12-18T13:21:18;100218.25;;;1.78;100.00
21902;BME280;11115;46.038;14.612;2022-12-18T13:23:53;100219.50;;;1.76;100.00
21902;BME280;11115;46.038;14.612;2022-12-18T13:26:32;100229.38;;;1.77;100.00
21902;BME280;11115;46.038;14.612;2022-12-18T13:29:09;100229.97;;;1.66;100.00
21902;BME280;11115;46.038;14.612;2022-12-18T13:31:58;100238.38;;;1.71;100.00
21902;BME280;11115;46.038;14.612;2022-12-18T13:34:36;100238.78;;;1.61;100.00
21902;BME280;11115;46.038;14.612;2022-12-18T13:43:42;100248.03;;;1.67;100.00
21902;BME280;11115;46.038;14.612;2022-12-18T13:46:48;100174.28;;;1.14;100.00
21902;BME280;11115;46.038;14.612;2022-12-18T13:52:33;100237.94;;;1.61;100.00
21902;BME280;11115;46.038;14.612;2022-12-18T13:55:23;100245.47;;;1.52;100.00
21902;BME280;11115;46.038;14.612;2022-12-18T13:58:04;100235.41;;;1.39;100.00
21902;BME280;11115;46.038;14.612;2022-12-18T14:00:41;100239.19;;;1.45;100.00
21902;BME280;11115;46.038;14.612;2022-12-18T14:03:30;100261.47;;;1.55;100.00
21902;BME280;11115;46.038;14.612;2022-12-18T14:06:07;100251.34;;;1.49;100.00
21902;BME280;11115;46.038;14.612;2022-12-18T14:08:42;100239.81;;;1.53;100.00
21902;BME280;11115;46.038;14.612;2022-12-18T14:11:22;100250.72;;;1.53;100.00
21902;BME280;11115;46.038;14.612;2022-12-18T14:14:00;100250.72;;;1.47;100.00
21902;BME280;11115;46.038;14.612;2022-12-18T14:16:37;100257.00;;;1.41;100.00
21902;BME280;11115;46.038;14.612;2022-12-18T14:19:22;100250.31;;;1.43;100.00
21902;BME280;11115;46.038;14.612;2022-12-18T14:22:01;100258.91;;;1.40;100.00
21902;BME280;11115;46.038;14.612;2022-12-18T14:24:30;100265.19;;;1.41;100.00
21902;BME280;11115;46.038;14.612;2022-12-18T14:27:22;100252.81;;;1.38;100.00
21902;BME280;11115;46.038;14.612;2022-12-18T14:29:58;100251.78;;;1.39;100.00
21902;BME280;11115;46.038;14.612;2022-12-18T14:32:42;100256.38;;;1.45;100.00
21902;BME280;11115;46.038;14.612;2022-12-18T14:35:19;100254.91;;;1.36;100.00
21902;BME280;11115;46.038;14.612;2022-12-18T14:38:26;100254.50;;;1.39;100.00
21902;BME280;11115;46.038;14.612;2022-12-18T14:41:14;100250.09;;;1.38;100.00
21902;BME280;11115;46.038;14.612;2022-12-18T14:43:49;100256.75;;;1.29;100.00
21902;BME280;11115;46.038;14.612;2022-12-18T14:46:38;100264.31;;;1.27;100.00
21902;BME280;11115;46.038;14.612;2022-12-18T14:49:30;100267.72;;;1.36;100.00
21902;BME280;11115;46.038;14.612;2022-12-18T14:52:06;100268.09;;;1.33;100.00
21902;BME280;11115;46.038;14.612;2022-12-18T14:54:37;100269.56;;;1.29;100.00
21902;BME280;11115;46.038;14.612;2022-12-18T14:57:34;100273.97;;;1.30;100.00
21902;BME280;11115;46.038;14.612;2022-12-18T15:00:21;100271.03;;;1.25;100.00